| time (UTC) | temp F | wind direction | speed knots | gust knots | rain 1hr in | rain 24hr in | rain mn in | humidity % | barometer mb |
| 20260509171601 | 40 | 0.0 | 0.0 | 0.11 | 0.44 | 0.44 | 95 | 1011.2 | |
| 20260509170055 | 40 | 0.0 | 0.0 | 0.10 | 0.41 | 0.41 | 95 | 1011.2 | |
| 20260509164554 | 40 | 0.0 | 0.0 | 0.11 | 0.39 | 0.39 | 94 | 1011.2 | |
| 20260509163105 | 40 | 0.0 | 0.0 | 0.10 | 0.35 | 0.35 | 94 | 1011.4 | |
| 20260509161554 | 40 | 0.0 | 0.0 | 0.11 | 0.33 | 0.33 | 94 | 1011.6 | |
| 20260509160059 | 39 | 0.0 | 0.0 | 0.13 | 0.31 | 0.31 | 94 | 1011.9 | |
| 20260509154604 | 39 | 0.0 | 0.0 | 0.13 | 0.28 | 0.28 | 94 | 1012.1 | |
| 20260509153057 | 39 | 0.0 | 0.0 | 0.12 | 0.25 | 0.25 | 94 | 1012.3 | |
| 20260509151556 | 39 | 0.0 | 0.0 | 0.10 | 0.22 | 0.22 | 94 | 1012.3 | |
| 20260509150055 | 39 | 0.0 | 0.0 | 0.07 | 0.18 | 0.18 | 93 | 1012.3 | |
| 20260509144609 | 39 | 0.0 | 0.0 | 0.06 | 0.15 | 0.15 | 94 | 1012.4 | |
| 20260509143056 | 39 | 0.0 | 0.0 | 0.06 | 0.13 | 0.13 | 93 | 1012.3 | |
| 20260509141555 | 39 | 0.0 | 0.0 | 0.07 | 0.12 | 0.12 | 94 | 1012.1 | |
| 20260509140107 | 39 | 0.0 | 0.0 | 0.08 | 0.11 | 0.11 | 93 | 1012.1 | |
| 20260509134555 | 39 | 0.0 | 0.0 | 0.07 | 0.09 | 0.09 | 94 | 1012.0 | |
| 20260509133102 | 39 | 0.0 | 0.0 | 0.06 | 0.07 | 0.07 | 93 | 1012.0 | |
| 20260509131602 | 39 | 0.0 | 0.0 | 0.05 | 0.05 | 0.05 | 92 | 1012.2 | |
| 20260509130105 | 39 | 0.0 | 0.0 | 0.03 | 0.03 | 0.03 | 91 | 1012.1 | |
| 20260509124603 | 39 | 0.0 | 0.0 | 0.02 | 0.02 | 0.02 | 89 | 1012.1 | |
| 20260509123054 | 39 | 0.0 | 0.0 | 0.01 | 0.01 | 0.01 | 87 | 1012.1 | |
| 20260509121604 | 39 | 0.0 | 0.0 | 0.00 | 0.00 | 0.00 | 85 | 1012.2 | |
| 20260509120056 | 38 | 0.0 | 0.0 | 0.00 | 0.00 | 0.00 | 83 | 1012.3 | |
| 20260509114555 | 37 | 0.0 | 0.0 | 0.00 | 0.00 | 0.00 | 84 | 1012.5 | |
| 20260509113101 | 35 | 0.0 | 0.0 | 0.00 | 0.00 | 0.00 | 83 | 1012.5 | |
| 20260509111607 | 36 | 0.0 | 0.0 | 0.00 | 0.00 | 0.00 | 80 | 1012.5 | |
| 20260509110056 | 35 | 0.0 | 0.0 | 0.00 | 0.00 | 0.00 | 81 | 1012.5 | |
| 20260509104556 | 34 | 0.0 | 0.0 | 0.00 | 0.00 | 0.00 | 81 | 1012.5 | |
| 20260509103100 | 34 | 0.0 | 0.0 | 0.00 | 0.00 | 0.00 | 80 | 1012.4 | |
| 20260509101554 | 33 | 0.0 | 0.0 | 0.00 | 0.00 | 0.00 | 79 | 1012.4 | |
| 20260509100054 | 32 | 0.0 | 0.0 | 0.00 | 0.00 | 0.00 | 81 | 1012.2 | |
| 20260509094556 | 32 | 0.0 | 0.0 | 0.00 | 0.00 | 0.00 | 81 | 1012.2 | |
| 20260509093055 | 33 | 0.0 | 0.0 | 0.00 | 0.00 | 0.00 | 82 | 1012.4 | |
| 20260509091559 | 33 | 0.0 | 0.0 | 0.00 | 0.00 | 0.00 | 79 | 1012.3 | |
| 20260509090108 | 34 | 0.0 | 0.0 | 0.00 | 0.00 | 0.00 | 73 | 1012.3 | |
| 20260509084602 | 34 | 0.0 | 0.0 | 0.00 | 0.00 | 0.00 | 71 | 1012.2 | |
| 20260509083100 | 33 | 0.0 | 0.0 | 0.00 | 0.00 | 0.00 | 68 | 1011.9 | |
| 20260509081600 | 33 | 0.0 | 0.0 | 0.00 | 0.00 | 0.00 | 70 | 1011.9 | |
| 20260509080100 | 33 | 0.0 | 0.0 | 0.00 | 0.00 | 0.00 | 71 | 1011.8 | |
| 20260509074556 | 33 | 0.0 | 0.0 | 0.00 | 0.00 | 0.00 | 76 | 1011.8 | |
| 20260509073056 | 34 | 0.0 | 0.0 | 0.00 | 0.00 | 0.00 | 76 | 1011.7 | |
| 20260509071600 | 33 | 0.0 | 0.0 | 0.00 | 0.00 | 0.00 | 76 | 1011.6 | |
| 20260509070057 | 34 | 0.0 | 0.0 | 0.00 | 0.00 | 0.00 | 77 | 1011.9 | |
| 20260509064602 | 33 | 0.0 | 0.0 | 0.00 | 0.00 | 0.00 | 79 | 1011.9 | |
| 20260509063111 | 33 | 0.0 | 0.0 | 0.00 | 0.00 | 0.00 | 82 | 1011.8 | |
| 20260509061604 | 33 | 0.0 | 0.0 | 0.00 | 0.00 | 0.00 | 83 | 1012.0 | |
| 20260509060100 | 33 | 0.0 | 0.0 | 0.00 | 0.00 | 0.00 | 83 | 1012.2 | |
| 20260509054606 | 33 | 0.0 | 0.0 | 0.00 | 0.00 | 0.00 | 83 | 1012.3 | |
| 20260509053133 | 33 | 0.0 | 0.0 | 0.00 | 0.00 | 0.00 | 82 | 1012.3 | |
| 20260509051557 | 33 | 0.0 | 0.0 | 0.00 | 0.00 | 0.00 | 81 | 1012.3 | |
| 20260509050057 | 34 | 0.0 | 0.0 | 0.00 | 0.00 | 0.00 | 79 | 1012.3 | |
| 20260509044554 | 36 | 0.0 | 0.0 | 0.00 | 0.00 | 0.00 | 74 | 1012.2 | |
| 20260509043107 | 36 | 0.0 | 0.0 | 0.00 | 0.00 | 0.00 | 71 | 1012.0 | |
| 20260509041602 | 36 | 0.0 | 0.0 | 0.00 | 0.00 | 0.00 | 72 | 1011.9 | |
| 20260509040109 | 37 | 0.0 | 0.0 | 0.00 | 0.00 | 0.00 | 71 | 1011.8 | |
| 20260509034604 | 38 | 0.0 | 0.0 | 0.00 | 0.00 | 0.00 | 69 | 1011.7 | |
| 20260509033054 | 38 | 0.0 | 0.0 | 0.00 | 0.00 | 0.00 | 70 | 1011.8 | |
| 20260509031605 | 38 | 0.0 | 0.0 | 0.00 | 0.00 | 0.00 | 71 | 1011.8 | |
| 20260509030056 | 38 | 0.0 | 0.0 | 0.00 | 0.00 | 0.00 | 70 | 1011.8 | |
| 20260509024554 | 39 | 0.0 | 0.0 | 0.00 | 0.00 | 0.00 | 70 | 1011.6 | |
| 20260509023057 | 39 | 0.0 | 0.0 | 0.00 | 0.00 | 0.00 | 71 | 1011.6 | |
| 20260509021600 | 38 | 0.0 | 0.0 | 0.00 | 0.00 | 0.00 | 73 | 1011.5 | |
| 20260509020056 | 36 | 0.0 | 0.0 | 0.00 | 0.00 | 0.00 | 76 | 1011.3 | |
| 20260509014600 | 37 | 0.0 | 0.0 | 0.00 | 0.00 | 0.00 | 74 | 1011.1 | |
| 20260509013103 | 38 | 0.0 | 0.0 | 0.00 | 0.00 | 0.00 | 73 | 1010.9 | |
| 20260509011558 | 37 | 0.0 | 0.0 | 0.00 | 0.00 | 0.00 | 74 | 1010.9 | |
| 20260509010058 | 39 | 0.0 | 0.0 | 0.00 | 0.00 | 0.00 | 70 | 1010.7 | |
| 20260509004601 | 39 | 0.0 | 0.0 | 0.00 | 0.00 | 0.00 | 69 | 1010.3 | |
| 20260509003101 | 40 | 0.0 | 0.0 | 0.00 | 0.00 | 0.00 | 68 | 1010.2 | |
| 20260509001558 | 40 | 0.0 | 0.0 | 0.00 | 0.00 | 0.00 | 67 | 1010.1 | |
| 20260509000059 | 41 | 0.0 | 0.0 | 0.00 | 0.00 | 0.00 | 66 | 1010.0 | |
| 20260508234557 | 41 | 0.0 | 0.0 | 0.00 | 0.00 | 0.00 | 66 | 1009.9 | |
| 20260508233106 | 42 | 0.0 | 0.0 | 0.00 | 0.00 | 0.00 | 64 | 1009.8 | |
| 20260508231556 | 42 | 0.0 | 0.0 | 0.00 | 0.00 | 0.00 | 64 | 1009.6 | |
| 20260508224555 | 42 | 0.0 | 0.0 | 0.00 | 0.00 | 0.00 | 66 | 1009.4 | |
| 20260508223054 | 42 | 0.0 | 0.0 | 0.00 | 0.00 | 0.00 | 68 | 1009.4 | |
| 20260508221555 | 42 | 0.0 | 0.0 | 0.00 | 0.00 | 0.00 | 66 | 1009.5 | |
| 20260508220100 | 43 | 0.0 | 0.0 | 0.00 | 0.00 | 0.00 | 66 | 1009.4 | |
| 20260508214559 | 43 | 0.0 | 0.0 | 0.00 | 0.00 | 0.00 | 68 | 1009.3 | |
| 20260508213055 | 43 | 0.0 | 0.0 | 0.00 | 0.00 | 0.00 | 63 | 1009.2 | |
| 20260508211556 | 43 | 0.0 | 0.0 | 0.00 | 0.00 | 0.00 | 67 | 1009.2 | |
| 20260508204556 | 44 | 0.0 | 0.0 | 0.00 | 0.00 | 0.00 | 63 | 1009.0 | |
| 20260508203102 | 46 | 0.0 | 0.0 | 0.00 | 0.00 | 0.00 | 53 | 1008.7 | |
| 20260508201556 | 46 | 0.0 | 0.0 | 0.00 | 0.00 | 0.00 | 53 | 1008.4 | |
| 20260508200058 | 46 | 0.0 | 0.0 | 0.00 | 0.00 | 0.00 | 52 | 1008.4 | |
| 20260508194556 | 47 | 0.0 | 0.0 | 0.00 | 0.00 | 0.00 | 52 | 1008.5 | |
| 20260508193112 | 48 | 0.0 | 0.0 | 0.00 | 0.00 | 0.00 | 52 | 1008.4 | |
| 20260508191608 | 47 | 0.0 | 0.0 | 0.00 | 0.00 | 0.00 | 54 | 1008.3 | |
| 20260508190059 | 46 | 0.0 | 0.0 | 0.00 | 0.00 | 0.00 | 55 | 1008.6 | |
| 20260508184557 | 43 | 0.0 | 0.0 | 0.00 | 0.00 | 0.00 | 55 | 1008.9 | |
| 20260508183056 | 45 | 0.0 | 0.0 | 0.00 | 0.00 | 0.00 | 57 | 1009.1 | |
| 20260508181559 | 46 | 0.0 | 0.0 | 0.00 | 0.00 | 0.00 | 55 | 1009.0 | |
| 20260508180057 | 46 | 0.0 | 0.0 | 0.00 | 0.00 | 0.00 | 54 | 1008.8 | |
| 20260508174556 | 47 | 0.0 | 0.0 | 0.00 | 0.00 | 0.00 | 49 | 1008.8 | |
| 20260508173059 | 46 | 0.0 | 0.0 | 0.00 | 0.00 | 0.00 | 54 | 1008.9 |